Jefferson, Wisconsin
Current Conditions -  °F | °C
As of 12:15 AM on Sunday 26 Oct 2014 (Local Time) from KRYV Reporting Station
Clear Clear  
Wind Chill:   Ceiling: Unl
Heat Index:   Visibility: 10mi
Dew Point: -1°   Wind: 5mph
Humidity: 54%   Direction: 290°WNW
Pressure: 29.98"   Gusts: NA
Location:  43°N, 88.81°W
Report Text: KRYV 260515Z AUTO 29004KT 10SM CLR 08/M01 A2998 RMK AO2 T00791010
Loading
Personal Weather Stations






























Interactive Weather Map
Tropical Storm Tracking
New forecast layout! Learn more

10-Day Weather Forecast

Advertisements
Track Severe Weather on mobile